PATL/TLJ METAR and TAF weather

Enter ICAO airport designator
Station Type Date Time Source
PATL METAR 2021/07/30 23:55 UTC NOAA

PATL 302355Z AUTO 03011KT 010V080 10SM OVC009 12/11 A3002 RMK AO2 SLP166 T01230109 10124 20114 57006


Station Type Date Time Source
PATL Decoded METAR 2021/07/30 23:55 UTC NOAA

Takotna, Tatalina LRRS Airport, AK, United States (PATL) 62-54N 155-59W
Jul 30, 2021 - 07:55 PM EDT / 2021.07.30 2355 UTC
Wind: from the NNE (030 degrees) at 13 MPH (11 KT) (direction variable):0
Visibility: 10 mile(s):0
Sky conditions: overcast
Temperature: 54.1 F (12.3 C)
Dew Point: 51.6 F (10.9 C)
Relative Humidity: 91%
Pressure (altimeter): 30.02 in. Hg (1016 hPa)
Pressure tendency: 0.02 inches (0.6 hPa) lower than three hours ago
ob: PATL 302355Z AUTO 03011KT 010V080 10SM OVC009 12/11 A3002 RMK AO2 SLP166 T01230109 10124 20114 57006
cycle: 0

Station Type Date Time Source
PATL TAF 2012/01/12 14:06 UTC NOAA

TAF PATL 1214/1320 VRB06KT 9999 FEW050 SCT110 QNH2998INS TM26/1300Z TM32/1315Z

Example: see airport list